createdAt,value
2018-04-02T00:00:01.790Z,237.20
2018-04-02T00:01:01.776Z,240.20
2018-04-02T00:02:01.701Z,222.80
2018-04-02T00:03:01.663Z,238.10
2018-04-02T00:04:01.617Z,257.60
2018-04-02T00:05:01.572Z,261.90
2018-04-02T00:06:01.526Z,291.10
2018-04-02T00:07:01.522Z,269.60
2018-04-02T00:08:01.447Z,243.50
2018-04-02T00:09:01.417Z,262.20
2018-04-02T00:10:01.365Z,297.30
2018-04-02T00:11:01.309Z,305.60
2018-04-02T00:12:01.270Z,333.90
2018-04-02T00:13:01.265Z,339.50
2018-04-02T00:14:01.184Z,316.50
2018-04-02T00:15:01.138Z,307.20
2018-04-02T00:16:01.111Z,334.60
2018-04-02T00:17:01.063Z,318.20
2018-04-02T00:18:01.021Z,346.50
2018-04-02T00:19:00.997Z,316.80
2018-04-02T00:20:00.932Z,279.10
2018-04-02T00:21:00.888Z,282.50
2018-04-02T00:22:00.847Z,285.30
2018-04-02T00:23:00.809Z,294.50
2018-04-02T00:24:00.818Z,305.00
2018-04-02T00:25:00.740Z,296.30
2018-04-02T00:26:00.665Z,274.70
2018-04-02T00:27:00.632Z,272.00
2018-04-02T00:28:00.583Z,263.70
2018-04-02T00:29:00.551Z,252.60
2018-04-02T00:30:00.492Z,255.60
2018-04-02T00:31:00.486Z,273.50
2018-04-02T00:32:00.410Z,300.10
2018-04-02T00:33:00.371Z,309.30
2018-04-02T00:34:00.328Z,285.30
2018-04-02T00:35:00.286Z,294.10
2018-04-02T00:36:00.247Z,301.50
2018-04-02T00:37:00.239Z,265.20
2018-04-02T00:38:00.148Z,264.10
2018-04-02T00:39:00.116Z,281.10
2018-04-02T00:40:00.070Z,276.60
2018-04-02T00:41:00.027Z,252.20
2018-04-02T00:41:59.986Z,284.10
2018-04-02T00:42:59.982Z,266.20
2018-04-02T00:43:59.900Z,268.80
2018-04-02T00:44:59.850Z,277.80
2018-04-02T00:45:59.818Z,298.50
2018-04-02T00:46:59.771Z,259.60
2018-04-02T00:47:59.727Z,268.70
2018-04-02T00:48:59.709Z,263.50
2018-04-02T00:49:59.641Z,245.20
2018-04-02T00:50:59.604Z,249.80
2018-04-02T00:51:59.551Z,230.10
2018-04-02T00:52:59.517Z,255.70
2018-04-02T00:53:59.463Z,257.90
2018-04-02T00:54:59.462Z,231.50
2018-04-02T00:55:59.378Z,216.80
2018-04-02T00:56:59.342Z,221.60
2018-04-02T00:57:59.299Z,219.60
2018-04-02T00:58:59.260Z,244.60
2018-04-02T00:59:59.212Z,261.20
2018-04-02T01:00:59.199Z,236.20
2018-04-02T01:01:59.133Z,253.00
2018-04-02T01:02:59.101Z,300.50
2018-04-02T01:03:59.044Z,278.70
2018-04-02T01:04:58.998Z,255.30
2018-04-02T01:05:58.949Z,259.20
2018-04-02T01:06:58.938Z,258.00
2018-04-02T01:07:58.875Z,245.60
2018-04-02T01:08:58.828Z,247.20
2018-04-02T01:09:58.793Z,253.40
2018-04-02T01:10:58.748Z,257.90
2018-04-02T01:11:58.701Z,246.40
2018-04-02T01:12:58.678Z,240.70
2018-04-02T01:13:58.604Z,238.60
2018-04-02T01:14:58.572Z,248.70
2018-04-02T01:15:58.530Z,224.30
2018-04-02T01:16:58.478Z,250.10
2018-04-02T01:17:58.439Z,257.50
2018-04-02T01:18:58.427Z,301.90
2018-04-02T01:19:58.349Z,296.90
2018-04-02T01:20:58.302Z,318.30
2018-04-02T01:21:58.270Z,271.90
2018-04-02T01:22:58.228Z,276.70
2018-04-02T01:23:58.178Z,270.80
2018-04-02T01:24:58.166Z,266.50
2018-04-02T01:25:58.094Z,275.00
2018-04-02T01:26:58.053Z,260.10
2018-04-02T01:27:58.004Z,242.10
2018-04-02T01:28:57.955Z,228.40
2018-04-02T01:29:57.918Z,242.90
2018-04-02T01:30:57.906Z,237.70
2018-04-02T01:31:57.831Z,229.10
2018-04-02T01:32:57.792Z,232.20
2018-04-02T01:33:57.747Z,241.20
2018-04-02T01:34:57.700Z,256.70
2018-04-02T01:35:57.662Z,250.00
2018-04-02T01:36:57.656Z,232.50
2018-04-02T01:37:57.577Z,256.50
2018-04-02T01:38:57.544Z,291.40
2018-04-02T01:39:57.493Z,264.40
2018-04-02T01:40:57.445Z,324.40
2018-04-02T01:41:57.435Z,323.70
2018-04-02T01:42:57.354Z,286.40
2018-04-02T01:43:57.315Z,304.50
2018-04-02T01:44:57.274Z,296.90
2018-04-02T01:45:57.224Z,262.20
2018-04-02T01:46:57.192Z,277.00
2018-04-02T01:47:57.182Z,380.00
2018-04-02T01:48:57.130Z,316.40
2018-04-02T01:49:57.051Z,348.10
2018-04-02T01:50:57.019Z,355.10
2018-04-02T01:51:56.972Z,397.70
2018-04-02T01:52:56.931Z,332.30
2018-04-02T01:53:56.912Z,326.70
2018-04-02T01:54:56.836Z,336.60
2018-04-02T01:55:56.809Z,263.90
2018-04-02T01:56:56.788Z,298.50
2018-04-02T01:57:56.710Z,294.40
2018-04-02T01:58:56.673Z,292.10
2018-04-02T01:59:56.650Z,322.50
2018-04-02T02:00:56.583Z,262.60
2018-04-02T02:01:56.536Z,226.90
2018-04-02T02:02:56.499Z,266.40
2018-04-02T02:03:56.451Z,354.20
2018-04-02T02:04:56.412Z,288.40
2018-04-02T02:05:56.397Z,293.70
2018-04-02T02:06:56.327Z,292.60
2018-04-02T02:07:56.284Z,328.00
2018-04-02T02:08:56.236Z,417.90
2018-04-02T02:09:56.187Z,385.50
2018-04-02T02:10:56.149Z,416.80
2018-04-02T02:11:56.127Z,364.50
2018-04-02T02:12:56.073Z,351.20
2018-04-02T02:13:56.018Z,370.60
2018-04-02T02:14:55.972Z,329.50
2018-04-02T02:15:55.929Z,314.90
2018-04-02T02:16:55.895Z,377.20
2018-04-02T02:17:55.873Z,356.80
2018-04-02T02:18:55.807Z,317.40
2018-04-02T02:19:55.757Z,375.30
2018-04-02T02:20:55.718Z,357.10
2018-04-02T02:21:55.704Z,359.00
2018-04-02T02:22:55.633Z,405.70
2018-04-02T02:23:55.604Z,360.70
2018-04-02T02:24:55.536Z,374.60
2018-04-02T02:25:55.502Z,366.70
2018-04-02T02:26:55.457Z,377.50
2018-04-02T02:27:55.414Z,371.40
2018-04-02T02:28:55.402Z,368.50
2018-04-02T02:29:55.326Z,342.60
2018-04-02T02:30:55.287Z,377.90
2018-04-02T02:31:55.234Z,379.80
2018-04-02T02:32:55.193Z,369.80
2018-04-02T02:33:55.160Z,363.30
2018-04-02T02:34:55.136Z,371.70
2018-04-02T02:35:55.068Z,384.20
2018-04-02T02:36:55.019Z,359.80
2018-04-02T02:37:54.986Z,345.30
2018-04-02T02:38:54.934Z,340.70
2018-04-02T02:39:54.919Z,333.60
2018-04-02T02:40:54.850Z,332.20
2018-04-02T02:41:54.804Z,324.40
2018-04-02T02:42:54.767Z,332.70
2018-04-02T02:43:54.719Z,320.40
2018-04-02T02:44:54.697Z,322.20
2018-04-02T02:45:54.635Z,303.10
2018-04-02T02:46:54.585Z,327.90
2018-04-02T02:47:54.553Z,320.00
2018-04-02T02:48:54.500Z,306.90
2018-04-02T02:49:54.458Z,319.80
2018-04-02T02:50:54.445Z,304.90
2018-04-02T02:51:54.372Z,301.20
2018-04-02T02:52:54.337Z,282.30
2018-04-02T02:53:54.284Z,277.40
2018-04-02T02:54:54.242Z,278.30
2018-04-02T02:55:54.221Z,274.90
2018-04-02T02:56:54.148Z,274.20
2018-04-02T02:57:54.641Z,278.00
2018-04-02T02:58:54.065Z,270.20
2018-04-02T02:59:54.031Z,254.50
2018-04-02T03:00:54.011Z,238.80
2018-04-02T03:01:53.939Z,243.10
2018-04-02T03:02:53.893Z,249.30
2018-04-02T03:03:53.850Z,250.80
2018-04-02T03:04:53.804Z,252.60
2018-04-02T03:05:53.760Z,249.00
2018-04-02T03:06:53.742Z,249.50
2018-04-02T03:07:53.686Z,243.60
2018-04-02T03:08:53.628Z,256.60
2018-04-02T03:09:53.593Z,245.40
2018-04-02T03:10:53.567Z,244.60
2018-04-02T03:11:53.503Z,242.90
2018-04-02T03:12:53.457Z,248.00
2018-04-02T03:13:53.420Z,251.40
2018-04-02T03:14:53.375Z,233.50
2018-04-02T03:15:53.333Z,239.20
2018-04-02T03:16:53.320Z,231.40
2018-04-02T03:17:53.241Z,229.30
2018-04-02T03:18:53.198Z,231.00
2018-04-02T03:19:53.178Z,224.20
2018-04-02T03:20:53.113Z,226.00
2018-04-02T03:21:53.071Z,227.60
2018-04-02T03:22:53.048Z,230.20
2018-04-02T03:23:52.974Z,232.30
2018-04-02T03:24:52.940Z,229.30
2018-04-02T03:25:52.888Z,222.10
2018-04-02T03:26:52.849Z,218.30
2018-04-02T03:27:52.807Z,227.40
2018-04-02T03:28:52.790Z,230.30
2018-04-02T03:29:52.720Z,227.90
2018-04-02T03:30:52.679Z,227.20
2018-04-02T03:31:52.638Z,219.90
2018-04-02T03:32:52.587Z,224.00
2018-04-02T03:33:52.542Z,216.50
2018-04-02T03:34:52.527Z,206.90
2018-04-02T03:35:52.464Z,208.80
2018-04-02T03:36:52.422Z,203.90
2018-04-02T03:37:52.375Z,209.70
2018-04-02T03:38:52.329Z,210.40
2018-04-02T03:39:52.289Z,211.10
2018-04-02T03:40:52.263Z,209.20
2018-04-02T03:41:52.203Z,217.40
2018-04-02T03:42:52.181Z,221.00
2018-04-02T03:43:52.116Z,222.70
2018-04-02T03:44:52.067Z,212.10
2018-04-02T03:45:52.027Z,216.50
2018-04-02T03:46:52.007Z,214.30
2018-04-02T03:47:51.934Z,225.80
2018-04-02T03:48:51.889Z,223.70
2018-04-02T03:49:51.850Z,231.30
2018-04-02T03:50:51.810Z,230.40
2018-04-02T03:51:51.771Z,230.00
2018-04-02T03:52:51.757Z,231.90
2018-04-02T03:53:51.680Z,237.30
2018-04-02T03:54:51.637Z,242.10
2018-04-02T03:55:51.586Z,238.40
2018-04-02T03:56:51.547Z,234.10
2018-04-02T03:57:51.515Z,230.40
2018-04-02T03:58:51.496Z,217.20
2018-04-02T03:59:51.416Z,230.60
2018-04-02T04:00:51.369Z,230.90
2018-04-02T04:01:51.341Z,225.40
2018-04-02T04:02:51.291Z,235.00
2018-04-02T04:03:51.245Z,229.00
2018-04-02T04:04:51.237Z,234.50
2018-04-02T04:05:51.155Z,233.80
2018-04-02T04:06:51.115Z,227.40
2018-04-02T04:07:51.089Z,243.70
2018-04-02T04:08:51.029Z,237.40
2018-04-02T04:09:50.989Z,235.70
2018-04-02T04:10:50.964Z,222.40
2018-04-02T04:11:50.907Z,233.20
2018-04-02T04:12:50.859Z,233.70
2018-04-02T04:13:50.817Z,227.60
2018-04-02T04:14:50.764Z,226.00
2018-04-02T04:15:50.725Z,227.20
2018-04-02T04:16:50.712Z,227.40
2018-04-02T04:17:50.635Z,229.90
2018-04-02T04:18:50.603Z,218.80
2018-04-02T04:19:50.556Z,224.40
2018-04-02T04:20:50.515Z,231.50
2018-04-02T04:21:50.473Z,234.70
2018-04-02T04:22:50.452Z,234.50
2018-04-02T04:23:50.390Z,239.70
2018-04-02T04:24:50.341Z,228.00
2018-04-02T04:25:50.293Z,226.40
2018-04-02T04:26:50.252Z,219.10
2018-04-02T04:27:50.203Z,228.70
2018-04-02T04:28:50.191Z,225.90
2018-04-02T04:29:50.115Z,229.40
2018-04-02T04:30:50.077Z,227.70
2018-04-02T04:31:50.038Z,239.00
2018-04-02T04:32:49.992Z,228.70
2018-04-02T04:33:49.956Z,226.70
2018-04-02T04:34:49.927Z,238.70
2018-04-02T04:35:49.868Z,223.70
2018-04-02T04:36:49.822Z,233.70
2018-04-02T04:37:49.768Z,228.70
2018-04-02T04:38:49.729Z,230.10
2018-04-02T04:39:49.689Z,227.10
2018-04-02T04:40:49.666Z,209.90
2018-04-02T04:41:49.598Z,208.10
2018-04-02T04:42:49.551Z,201.90
2018-04-02T04:43:49.517Z,213.30
2018-04-02T04:44:49.467Z,205.40
2018-04-02T04:45:49.468Z,211.60
2018-04-02T04:46:49.384Z,215.70
2018-04-02T04:47:49.344Z,222.60
2018-04-02T04:48:49.304Z,207.00
2018-04-02T04:49:49.257Z,211.20
2018-04-02T04:50:49.210Z,206.20
2018-04-02T04:51:49.189Z,207.90
2018-04-02T04:52:49.156Z,207.40
2018-04-02T04:53:49.080Z,206.20
2018-04-02T04:54:49.043Z,211.10
2018-04-02T04:55:48.994Z,210.90
2018-04-02T04:56:48.955Z,203.30
2018-04-02T04:57:48.933Z,200.10
2018-04-02T04:58:48.857Z,196.40
2018-04-02T04:59:48.809Z,195.40
2018-04-02T05:00:48.773Z,190.70
2018-04-02T05:01:48.721Z,184.40
2018-04-02T05:02:48.721Z,192.90
2018-04-02T05:03:48.639Z,198.10
2018-04-02T05:04:48.602Z,192.10
2018-04-02T05:05:48.565Z,187.00
2018-04-02T05:06:48.511Z,202.50
2018-04-02T05:07:48.473Z,184.90
2018-04-02T05:08:48.447Z,193.90
2018-04-02T05:09:48.382Z,177.10
2018-04-02T05:10:48.338Z,179.80
2018-04-02T05:11:48.296Z,181.60
2018-04-02T05:12:48.250Z,185.70
2018-04-02T05:13:48.208Z,180.60
2018-04-02T05:14:48.197Z,173.70
2018-04-02T05:15:48.125Z,172.00
2018-04-02T05:16:48.075Z,168.90
2018-04-02T05:17:48.022Z,179.40
2018-04-02T05:18:47.991Z,169.00
2018-04-02T05:19:47.990Z,173.90
2018-04-02T05:20:47.929Z,158.30
2018-04-02T05:21:47.863Z,158.30
2018-04-02T05:22:47.820Z,165.20
2018-04-02T05:23:47.770Z,164.00
2018-04-02T05:24:47.723Z,156.00
2018-04-02T05:25:47.703Z,161.30
2018-04-02T05:26:47.671Z,153.80
2018-04-02T05:27:47.594Z,153.80
2018-04-02T05:28:47.550Z,150.20
2018-04-02T05:29:47.509Z,155.70
2018-04-02T05:30:47.460Z,150.10
2018-04-02T05:31:47.417Z,146.30
2018-04-02T05:32:47.396Z,146.40
2018-04-02T05:33:47.330Z,145.70
2018-04-02T05:34:47.282Z,141.30
2018-04-02T05:35:47.266Z,143.90
2018-04-02T05:36:47.204Z,145.30
2018-04-02T05:37:47.160Z,144.80
2018-04-02T05:38:47.148Z,141.50
2018-04-02T05:39:47.093Z,135.70
2018-04-02T05:40:47.029Z,127.20
2018-04-02T05:41:46.991Z,128.60
2018-04-02T05:42:46.949Z,126.10
2018-04-02T05:43:46.902Z,129.90
2018-04-02T05:44:46.887Z,134.10
2018-04-02T05:45:46.821Z,134.50
2018-04-02T05:46:46.786Z,123.50
2018-04-02T05:47:46.727Z,124.50
2018-04-02T05:48:46.688Z,121.30
2018-04-02T05:49:46.668Z,124.70
2018-04-02T05:50:46.599Z,118.00
2018-04-02T05:51:46.563Z,121.10
2018-04-02T05:52:46.516Z,117.90
2018-04-02T05:53:46.485Z,108.10
2018-04-02T05:54:46.426Z,110.40
2018-04-02T05:55:46.418Z,115.10
2018-04-02T05:56:46.347Z,117.60
2018-04-02T05:57:46.298Z,117.30
2018-04-02T05:58:46.260Z,117.20
2018-04-02T05:59:46.250Z,107.80
2018-04-02T06:00:46.168Z,111.60
2018-04-02T06:01:46.155Z,102.70
2018-04-02T06:02:46.079Z,106.00
2018-04-02T06:03:46.042Z,108.60
2018-04-02T06:04:46.018Z,99.40
2018-04-02T06:05:45.950Z,104.60
2018-04-02T06:06:45.912Z,101.00
2018-04-02T06:07:45.900Z,99.90
2018-04-02T06:08:45.837Z,100.40
2018-04-02T06:09:45.786Z,97.50
2018-04-02T06:10:45.760Z,102.20
2018-04-02T06:11:45.696Z,97.20
2018-04-02T06:12:45.657Z,106.00
2018-04-02T06:13:45.636Z,101.20
2018-04-02T06:14:45.577Z,89.50
2018-04-02T06:15:45.546Z,97.40
2018-04-02T06:16:45.492Z,98.50
2018-04-02T06:17:45.451Z,92.50
2018-04-02T06:18:45.441Z,92.00
2018-04-02T06:19:45.368Z,89.00
2018-04-02T06:20:45.329Z,90.00
2018-04-02T06:21:45.275Z,85.80
2018-04-02T06:22:45.237Z,87.00
2018-04-02T06:23:45.190Z,85.70
2018-04-02T06:24:45.174Z,88.10
2018-04-02T06:25:45.107Z,89.40
2018-04-02T06:26:45.061Z,86.60
2018-04-02T06:27:45.021Z,83.30
2018-04-02T06:28:45.004Z,84.20
2018-04-02T06:29:44.936Z,82.10
2018-04-02T06:30:44.906Z,81.10
2018-04-02T06:31:44.853Z,81.30
2018-04-02T06:32:44.809Z,80.10
2018-04-02T06:33:44.770Z,79.60
2018-04-02T06:34:44.748Z,77.50
2018-04-02T06:35:44.687Z,79.90
2018-04-02T06:36:44.654Z,79.40
2018-04-02T06:37:44.599Z,75.20
2018-04-02T06:38:44.553Z,75.60
2018-04-02T06:39:44.524Z,76.20
2018-04-02T06:40:44.515Z,76.60
2018-04-02T06:41:44.434Z,74.80
2018-04-02T06:42:44.392Z,74.20
2018-04-02T06:43:44.353Z,77.00
2018-04-02T06:44:44.309Z,72.80
2018-04-02T06:45:44.271Z,75.20
2018-04-02T06:46:44.262Z,72.10
2018-04-02T06:47:44.187Z,66.30
2018-04-02T06:48:44.150Z,70.20
2018-04-02T06:49:44.099Z,69.00
2018-04-02T06:50:44.071Z,67.70
2018-04-02T06:51:44.018Z,69.70
2018-04-02T06:52:44.005Z,67.30
2018-04-02T06:53:43.934Z,67.10
2018-04-02T06:54:43.894Z,68.80
2018-04-02T06:55:43.852Z,59.90
2018-04-02T06:56:43.816Z,63.90
2018-04-02T06:57:43.779Z,66.10
2018-04-02T06:58:43.765Z,64.40
2018-04-02T06:59:43.696Z,69.90
2018-04-02T07:00:43.649Z,65.80
2018-04-02T07:01:43.604Z,65.00
2018-04-02T07:02:43.574Z,62.50
2018-04-02T07:03:43.528Z,64.50
2018-04-02T07:04:43.519Z,63.80
2018-04-02T07:05:43.449Z,66.20
2018-04-02T07:06:43.427Z,63.40
2018-04-02T07:07:43.365Z,58.30
2018-04-02T07:08:43.317Z,55.50
2018-04-02T07:09:43.284Z,62.40
2018-04-02T07:10:43.268Z,59.20
2018-04-02T07:11:43.200Z,60.40
2018-04-02T07:12:43.153Z,61.60
2018-04-02T07:13:43.117Z,59.00
2018-04-02T07:14:43.080Z,61.90
2018-04-02T07:15:43.028Z,60.20
2018-04-02T07:16:43.013Z,60.60
2018-04-02T07:17:42.949Z,60.40
2018-04-02T07:18:42.905Z,61.00
2018-04-02T07:19:42.875Z,55.40
2018-04-02T07:20:42.860Z,57.70
2018-04-02T07:21:42.783Z,56.30
2018-04-02T07:22:42.743Z,54.00
2018-04-02T07:23:42.707Z,58.50
2018-04-02T07:24:42.667Z,57.70
2018-04-02T07:25:42.622Z,58.10
2018-04-02T07:26:42.612Z,58.40
2018-04-02T07:27:42.539Z,56.50
2018-04-02T07:28:42.491Z,56.30
2018-04-02T07:29:42.455Z,54.80
2018-04-02T07:30:42.416Z,52.40
2018-04-02T07:31:42.380Z,55.30
2018-04-02T07:32:42.361Z,54.60
2018-04-02T07:33:42.286Z,54.70
2018-04-02T07:34:42.253Z,51.70
2018-04-02T07:35:42.211Z,52.00
2018-04-02T07:36:42.169Z,49.40
2018-04-02T07:37:42.274Z,53.20
2018-04-02T07:38:42.093Z,49.50
2018-04-02T07:39:42.057Z,51.20
2018-04-02T07:40:42.008Z,50.70
2018-04-02T07:41:41.975Z,51.20
2018-04-02T07:42:41.927Z,49.90
2018-04-02T07:43:41.920Z,49.60
2018-04-02T07:44:41.847Z,51.50
2018-04-02T07:45:41.803Z,50.00
2018-04-02T07:46:41.771Z,47.30
2018-04-02T07:47:41.721Z,46.90
2018-04-02T07:48:41.719Z,47.40
2018-04-02T07:49:41.646Z,47.30
2018-04-02T07:50:41.650Z,46.90
2018-04-02T07:51:41.568Z,44.00
2018-04-02T07:52:41.528Z,47.70
2018-04-02T07:53:41.479Z,43.90
2018-04-02T07:54:41.484Z,46.80
2018-04-02T07:55:41.402Z,45.30
2018-04-02T07:56:41.369Z,44.50
2018-04-02T07:57:41.318Z,42.90
2018-04-02T07:58:41.291Z,44.40
2018-04-02T07:59:41.246Z,44.30
2018-04-02T08:00:41.230Z,43.40
2018-04-02T08:01:41.175Z,42.70
2018-04-02T08:02:41.153Z,43.20
2018-04-02T08:03:41.083Z,42.30
2018-04-02T08:04:41.057Z,42.10
2018-04-02T08:05:41.002Z,41.50
2018-04-02T08:06:40.995Z,41.30
2018-04-02T08:07:40.921Z,40.40
2018-04-02T08:08:40.927Z,40.20
2018-04-02T08:09:40.849Z,40.40
2018-04-02T08:10:40.805Z,39.00
2018-04-02T08:11:40.772Z,41.60
2018-04-02T08:12:40.747Z,39.10
2018-04-02T08:13:40.693Z,39.40
2018-04-02T08:14:40.661Z,38.80
2018-04-02T08:15:40.612Z,38.10
2018-04-02T08:16:40.567Z,38.50
2018-04-02T08:17:40.544Z,38.00
2018-04-02T08:18:40.485Z,37.10
2018-04-02T08:19:40.446Z,37.10
2018-04-02T08:20:40.412Z,35.90
2018-04-02T08:21:40.386Z,36.60
2018-04-02T08:22:40.358Z,33.70
2018-04-02T08:23:40.294Z,35.20
2018-04-02T08:24:40.262Z,35.30
2018-04-02T08:25:40.206Z,34.80
2018-04-02T08:26:40.175Z,35.00
2018-04-02T08:27:40.135Z,34.80
2018-04-02T08:28:40.123Z,36.20
2018-04-02T08:29:40.059Z,38.10
2018-04-02T08:30:40.020Z,33.90
2018-04-02T08:31:39.973Z,34.30
2018-04-02T08:32:39.990Z,34.20
2018-04-02T08:33:39.906Z,34.00
2018-04-02T08:34:39.889Z,33.70
2018-04-02T08:35:39.829Z,33.60
2018-04-02T08:36:39.792Z,32.70
2018-04-02T08:37:39.748Z,32.90
2018-04-02T08:38:39.774Z,34.00
2018-04-02T08:39:39.662Z,33.50
2018-04-02T08:40:39.649Z,32.30
2018-04-02T08:41:39.592Z,32.40
2018-04-02T08:42:39.554Z,32.90
2018-04-02T08:43:39.519Z,33.10
2018-04-02T08:44:39.478Z,32.20
2018-04-02T08:45:39.474Z,33.30
2018-04-02T08:46:39.409Z,31.60
2018-04-02T08:47:39.361Z,32.90
2018-04-02T08:48:39.346Z,32.20
2018-04-02T08:49:39.287Z,32.00
2018-04-02T08:50:39.341Z,31.80
2018-04-02T08:51:39.234Z,31.40
2018-04-02T08:52:39.171Z,32.60
2018-04-02T08:53:39.134Z,31.20
2018-04-02T08:54:39.100Z,32.50
2018-04-02T08:55:39.071Z,32.70
2018-04-02T08:56:39.036Z,31.80
2018-04-02T08:57:39.012Z,32.40
2018-04-02T08:58:38.945Z,32.20
2018-04-02T08:59:38.915Z,32.60
2018-04-02T09:00:38.916Z,32.80
2018-04-02T09:01:38.835Z,32.40
2018-04-02T09:02:38.809Z,31.80
2018-04-02T09:03:38.788Z,32.10
2018-04-02T09:04:38.724Z,31.40
2018-04-02T09:05:38.695Z,30.70
2018-04-02T09:06:38.661Z,30.70
2018-04-02T09:07:38.666Z,30.50
2018-04-02T09:08:38.579Z,30.00
2018-04-02T09:09:38.565Z,30.20
2018-04-02T09:10:38.502Z,29.20
2018-04-02T09:11:38.637Z,27.50
2018-04-02T09:12:38.421Z,29.10
2018-04-02T09:13:38.394Z,30.10
2018-04-02T09:14:38.356Z,28.60
2018-04-02T09:15:38.401Z,30.30
2018-04-02T09:16:38.285Z,29.70
2018-04-02T09:17:38.243Z,27.90
2018-04-02T09:18:38.214Z,29.00
2018-04-02T09:19:38.180Z,28.40
2018-04-02T09:20:38.163Z,27.30
2018-04-02T09:21:38.092Z,25.90
2018-04-02T09:22:38.061Z,28.40
2018-04-02T09:23:38.026Z,27.00
2018-04-02T09:24:38.006Z,25.70
2018-04-02T09:25:38.342Z,26.20
2018-04-02T09:26:37.913Z,26.80
2018-04-02T09:27:37.880Z,26.30
2018-04-02T09:28:37.840Z,28.30
2018-04-02T09:29:37.806Z,26.50
2018-04-02T09:30:37.786Z,27.30
2018-04-02T09:31:37.760Z,26.00
2018-04-02T09:32:37.708Z,26.60
2018-04-02T09:33:37.653Z,26.60
2018-04-02T09:34:37.608Z,25.80
2018-04-02T09:35:37.583Z,26.20
2018-04-02T09:36:37.547Z,27.80
2018-04-02T09:37:37.532Z,25.00
2018-04-02T09:38:37.489Z,25.30
2018-04-02T09:39:37.435Z,25.50
2018-04-02T09:40:37.396Z,25.90
2018-04-02T09:41:37.367Z,25.60
2018-04-02T09:42:37.348Z,26.20
2018-04-02T09:43:37.292Z,26.10
2018-04-02T09:44:37.268Z,25.50
2018-04-02T09:45:37.204Z,25.40
2018-04-02T09:46:37.166Z,23.80
2018-04-02T09:47:37.131Z,23.90
2018-04-02T09:48:37.126Z,22.60
2018-04-02T09:49:37.055Z,24.30
2018-04-02T09:50:37.024Z,23.60
2018-04-02T09:51:36.987Z,24.80
2018-04-02T09:52:36.948Z,23.50
2018-04-02T09:53:36.915Z,22.20
2018-04-02T09:54:36.902Z,22.10
2018-04-02T09:55:36.844Z,21.20
2018-04-02T09:56:36.806Z,21.00
2018-04-02T09:57:36.764Z,21.90
2018-04-02T09:58:36.732Z,20.60
2018-04-02T09:59:36.710Z,20.60
2018-04-02T10:00:36.699Z,20.20
2018-04-02T10:01:36.636Z,20.50
2018-04-02T10:02:36.589Z,19.50
2018-04-02T10:03:36.564Z,19.10
2018-04-02T10:04:36.622Z,18.60
2018-04-02T10:05:36.520Z,19.40
2018-04-02T10:06:36.451Z,18.90
2018-04-02T10:07:36.465Z,18.70
2018-04-02T10:08:36.383Z,19.20
2018-04-02T10:09:36.351Z,18.90
2018-04-02T10:10:36.346Z,17.40
2018-04-02T10:11:36.300Z,18.40
2018-04-02T10:12:36.242Z,18.10
2018-04-02T10:13:36.206Z,17.60
2018-04-02T10:14:36.191Z,17.40
2018-04-02T10:15:36.144Z,17.60
2018-04-02T10:16:36.104Z,17.30
2018-04-02T10:17:36.094Z,18.10
2018-04-02T10:18:36.051Z,16.80
2018-04-02T10:19:35.996Z,17.20
2018-04-02T10:20:35.967Z,16.10
2018-04-02T10:21:35.934Z,16.40
2018-04-02T10:22:35.904Z,16.10
2018-04-02T10:23:35.887Z,15.00
2018-04-02T10:24:35.835Z,15.40
2018-04-02T10:25:35.801Z,14.50
2018-04-02T10:26:35.765Z,14.40
2018-04-02T10:27:35.730Z,13.10
2018-04-02T10:28:35.699Z,13.50
2018-04-02T10:29:35.689Z,12.00
2018-04-02T10:30:35.631Z,12.80
2018-04-02T10:31:35.601Z,12.40
2018-04-02T10:32:35.561Z,11.00
2018-04-02T10:33:35.538Z,11.20
2018-04-02T10:34:35.523Z,12.00
2018-04-02T10:35:35.479Z,12.20
2018-04-02T10:36:35.430Z,13.00
2018-04-02T10:37:35.404Z,12.70
2018-04-02T10:38:35.406Z,12.50
2018-04-02T10:39:35.341Z,13.10
2018-04-02T10:40:35.342Z,12.80
2018-04-02T10:41:35.284Z,11.70
2018-04-02T10:42:35.246Z,12.30
2018-04-02T10:43:35.208Z,12.80
2018-04-02T10:44:35.210Z,14.10
2018-04-02T10:45:35.148Z,13.40
2018-04-02T10:46:35.138Z,13.40
2018-04-02T10:47:35.084Z,13.60
2018-04-02T10:48:35.086Z,13.50
2018-04-02T10:49:35.008Z,13.10
2018-04-02T10:50:34.980Z,12.30
2018-04-02T10:51:34.940Z,13.30
2018-04-02T10:52:34.938Z,13.50
2018-04-02T10:53:34.870Z,13.70
2018-04-02T10:54:34.863Z,13.00
2018-04-02T10:55:34.809Z,12.50
2018-04-02T10:56:34.777Z,11.20
2018-04-02T10:57:34.743Z,12.00
2018-04-02T10:58:34.724Z,11.30
2018-04-02T10:59:34.731Z,10.90
2018-04-02T11:00:34.645Z,11.50
2018-04-02T11:01:34.593Z,11.50
2018-04-02T11:02:34.566Z,11.40
2018-04-02T11:03:34.536Z,11.00
2018-04-02T11:04:34.520Z,12.10
2018-04-02T11:05:34.468Z,11.70
2018-04-02T11:06:34.421Z,10.70
2018-04-02T11:07:34.397Z,11.00
2018-04-02T11:08:34.353Z,11.50
2018-04-02T11:09:34.346Z,11.60
2018-04-02T11:10:34.294Z,10.50
2018-04-02T11:11:34.258Z,10.00
2018-04-02T11:12:34.243Z,12.60
2018-04-02T11:13:34.185Z,10.80
2018-04-02T11:14:34.177Z,10.10
2018-04-02T11:15:34.107Z,10.40
2018-04-02T11:16:34.084Z,10.10
2018-04-02T11:17:34.047Z,11.10
2018-04-02T11:18:34.010Z,10.00
2018-04-02T11:19:33.979Z,10.30
2018-04-02T11:20:33.998Z,10.30
2018-04-02T11:21:33.908Z,9.80
2018-04-02T11:22:33.873Z,9.80
2018-04-02T11:23:33.832Z,10.30
2018-04-02T11:24:33.802Z,10.30
2018-04-02T11:25:33.773Z,11.20
2018-04-02T11:26:33.772Z,9.30
2018-04-02T11:27:33.694Z,9.40
2018-04-02T11:28:33.662Z,9.50
2018-04-02T11:29:33.630Z,9.80
2018-04-02T11:30:33.625Z,9.60
2018-04-02T11:31:33.558Z,9.00
2018-04-02T11:32:33.549Z,9.20
2018-04-02T11:33:33.480Z,9.20
2018-04-02T11:34:33.461Z,8.50
2018-04-02T11:35:33.412Z,9.00
2018-04-02T11:36:33.383Z,8.80
2018-04-02T11:37:33.347Z,8.90
2018-04-02T11:38:33.339Z,8.20
2018-04-02T11:39:33.279Z,8.70
2018-04-02T11:40:33.240Z,8.20
2018-04-02T11:41:33.204Z,8.50
2018-04-02T11:42:33.194Z,8.70
2018-04-02T11:43:33.145Z,8.70
2018-04-02T11:44:33.130Z,9.70
2018-04-02T11:45:33.056Z,8.50
2018-04-02T11:46:33.023Z,8.80
2018-04-02T11:47:32.991Z,8.10
2018-04-02T11:48:32.960Z,7.70
2018-04-02T11:49:32.923Z,8.70
2018-04-02T11:50:32.912Z,8.10
2018-04-02T11:51:32.850Z,8.20
2018-04-02T11:52:32.813Z,7.80
2018-04-02T11:53:32.781Z,7.80
2018-04-02T11:54:32.764Z,8.10
2018-04-02T11:55:32.716Z,8.30
2018-04-02T11:56:32.699Z,8.40
2018-04-02T11:57:32.664Z,9.50
2018-04-02T11:58:32.614Z,7.70
2018-04-02T11:59:32.577Z,8.10
2018-04-02T12:00:32.534Z,8.00
2018-04-02T12:01:32.535Z,8.30
2018-04-02T12:02:32.479Z,9.10
2018-04-02T12:03:32.440Z,7.80
2018-04-02T12:04:32.409Z,7.70
2018-04-02T12:05:32.378Z,8.30
2018-04-02T12:06:32.339Z,8.30
2018-04-02T12:07:32.321Z,8.20
2018-04-02T12:08:32.260Z,8.00
2018-04-02T12:09:32.230Z,7.20
2018-04-02T12:10:32.213Z,8.10
2018-04-02T12:11:32.169Z,7.30
2018-04-02T12:12:32.137Z,7.60
2018-04-02T12:13:32.132Z,7.90
2018-04-02T12:14:32.060Z,8.10
2018-04-02T12:15:32.043Z,8.20
2018-04-02T12:16:32.002Z,9.10
2018-04-02T12:17:31.969Z,8.60
2018-04-02T12:18:31.943Z,9.00
2018-04-02T12:19:31.929Z,7.40
2018-04-02T12:20:31.871Z,8.70
2018-04-02T12:21:31.857Z,6.80
2018-04-02T12:22:31.797Z,7.60
2018-04-02T12:23:31.797Z,7.10
2018-04-02T12:24:31.757Z,8.20
2018-04-02T12:25:31.690Z,6.70
2018-04-02T12:26:31.667Z,6.00
2018-04-02T12:27:31.632Z,6.60
2018-04-02T12:28:31.597Z,7.20
2018-04-02T12:29:31.554Z,6.70
2018-04-02T12:30:31.561Z,7.60
2018-04-02T12:31:31.490Z,7.40
2018-04-02T12:32:31.457Z,6.90
2018-04-02T12:33:31.445Z,7.40
2018-04-02T12:34:31.398Z,6.60
2018-04-02T12:35:31.359Z,6.80
2018-04-02T12:36:31.343Z,6.00
2018-04-02T12:37:31.323Z,6.80
2018-04-02T12:38:31.320Z,7.30
2018-04-02T12:39:31.213Z,6.20
2018-04-02T12:40:31.177Z,6.90
2018-04-02T12:41:31.156Z,6.80
2018-04-02T12:42:31.133Z,6.10